createdAt,value
2023-03-29T00:00:23.598Z,86.70
2023-03-29T00:03:23.672Z,87.62
2023-03-29T00:06:23.547Z,85.77
2023-03-29T00:11:23.489Z,86.04
2023-03-29T00:12:23.467Z,86.86
2023-03-29T00:13:23.486Z,86.65
2023-03-29T00:15:23.445Z,85.31
2023-03-29T00:16:23.460Z,86.76
2023-03-29T00:18:23.402Z,85.11
2023-03-29T00:19:23.430Z,84.59
2023-03-29T00:21:23.386Z,84.55
2023-03-29T00:22:23.376Z,84.14
2023-03-29T00:23:23.369Z,84.14
2023-03-29T00:24:23.342Z,85.17
2023-03-29T00:25:23.352Z,85.89
2023-03-29T00:26:23.325Z,85.58
2023-03-29T00:27:23.337Z,84.96
2023-03-29T00:28:23.309Z,85.48
2023-03-29T00:29:23.302Z,84.45
2023-03-29T00:30:23.281Z,83.31
2023-03-29T00:33:23.276Z,82.76
2023-03-29T00:34:23.447Z,83.94
2023-03-29T00:36:23.423Z,84.76
2023-03-29T00:37:23.242Z,83.83
2023-03-29T00:38:23.409Z,84.18
2023-03-29T00:39:23.208Z,84.28
2023-03-29T00:40:23.215Z,84.49
2023-03-29T00:41:23.183Z,85.41
2023-03-29T00:42:23.157Z,85.77
2023-03-29T00:43:23.164Z,85.97
2023-03-29T00:44:23.158Z,86.12
2023-03-29T00:45:23.141Z,86.12
2023-03-29T00:46:23.165Z,86.57
2023-03-29T00:47:23.121Z,86.88
2023-03-29T00:48:23.114Z,87.50
2023-03-29T00:49:23.108Z,87.95
2023-03-29T00:50:25.137Z,88.05
2023-03-29T00:51:23.090Z,87.54
2023-03-29T00:52:23.067Z,87.33
2023-03-29T00:53:23.051Z,87.12
2023-03-29T00:54:23.037Z,87.57
2023-03-29T00:55:23.032Z,88.09
2023-03-29T00:56:23.032Z,87.57
2023-03-29T00:57:23.379Z,88.09
2023-03-29T00:58:22.998Z,87.89
2023-03-29T00:59:28.994Z,87.57
2023-03-29T01:00:22.981Z,87.68
2023-03-29T01:01:22.999Z,86.85
2023-03-29T01:02:23.005Z,86.85
2023-03-29T01:03:23.203Z,86.65
2023-03-29T01:04:23.143Z,86.65
2023-03-29T01:05:22.927Z,87.17
2023-03-29T01:06:23.027Z,86.85
2023-03-29T01:07:22.929Z,87.41
2023-03-29T01:08:22.893Z,87.62
2023-03-29T01:09:22.878Z,87.51
2023-03-29T01:10:22.892Z,89.00
2023-03-29T01:11:22.883Z,88.80
2023-03-29T01:12:22.873Z,88.48
2023-03-29T01:13:22.844Z,88.23
2023-03-29T01:14:22.844Z,88.54
2023-03-29T01:15:22.837Z,88.69
2023-03-29T01:16:22.865Z,89.11
2023-03-29T01:17:22.797Z,89.56
2023-03-29T01:18:22.816Z,89.77
2023-03-29T01:19:22.793Z,90.08
2023-03-29T01:20:22.774Z,91.11
2023-03-29T01:21:22.780Z,90.43
2023-03-29T01:22:22.755Z,90.18
2023-03-29T01:23:22.770Z,90.60
2023-03-29T01:24:22.756Z,90.39
2023-03-29T01:25:22.727Z,90.90
2023-03-29T01:26:22.736Z,90.66
2023-03-29T01:27:22.757Z,90.24
2023-03-29T01:28:22.696Z,90.24
2023-03-29T01:29:22.716Z,89.68
2023-03-29T01:30:22.711Z,89.48
2023-03-29T01:31:22.720Z,88.34
2023-03-29T01:32:22.657Z,89.17
2023-03-29T01:33:22.634Z,89.17
2023-03-29T01:34:22.642Z,89.06
2023-03-29T01:35:22.636Z,89.72
2023-03-29T01:36:22.609Z,89.93
2023-03-29T01:37:22.606Z,89.77
2023-03-29T01:38:22.596Z,91.32
2023-03-29T01:39:22.604Z,91.73
2023-03-29T01:40:22.575Z,91.46
2023-03-29T01:41:22.560Z,92.29
2023-03-29T01:42:22.552Z,91.61
2023-03-29T01:43:22.531Z,91.82
2023-03-29T01:44:22.534Z,92.65
2023-03-29T01:45:22.511Z,92.34
2023-03-29T01:46:22.544Z,92.48
2023-03-29T01:47:22.531Z,92.59
2023-03-29T01:48:22.490Z,92.89
2023-03-29T01:49:22.478Z,93.20
2023-03-29T01:50:28.475Z,93.62
2023-03-29T01:51:22.445Z,94.07
2023-03-29T01:52:22.448Z,94.70
2023-03-29T01:53:22.450Z,95.42
2023-03-29T01:54:22.429Z,95.01
2023-03-29T01:55:22.442Z,95.26
2023-03-29T01:56:22.417Z,95.61
2023-03-29T01:57:22.475Z,96.40
2023-03-29T01:58:22.383Z,96.30
2023-03-29T01:59:22.368Z,96.19
2023-03-29T02:00:22.380Z,96.19
2023-03-29T02:01:28.368Z,95.94
2023-03-29T02:02:22.395Z,95.63
2023-03-29T02:03:22.548Z,95.32
2023-03-29T02:04:22.325Z,95.26
2023-03-29T02:05:22.318Z,95.36
2023-03-29T02:06:22.305Z,95.72
2023-03-29T02:07:22.285Z,96.39
2023-03-29T02:08:22.487Z,96.80
2023-03-29T02:09:22.275Z,97.43
2023-03-29T02:10:22.271Z,97.43
2023-03-29T02:11:22.274Z,97.32
2023-03-29T02:12:22.356Z,97.99
2023-03-29T02:13:22.236Z,98.19
2023-03-29T02:14:22.278Z,98.44
2023-03-29T02:15:22.205Z,98.86
2023-03-29T02:16:22.342Z,99.48
2023-03-29T02:17:22.196Z,99.63
2023-03-29T02:18:22.217Z,99.99
2023-03-29T02:19:22.179Z,99.99
2023-03-29T02:20:22.161Z,99.99
2023-03-29T02:21:22.348Z,99.99
2023-03-29T02:22:22.148Z,99.99
2023-03-29T02:23:22.125Z,99.99
2023-03-29T02:24:22.142Z,99.99
2023-03-29T02:25:22.114Z,99.99
2023-03-29T02:26:22.315Z,99.99
2023-03-29T02:27:28.121Z,99.99
2023-03-29T02:28:22.079Z,99.99
2023-03-29T02:29:22.065Z,99.99
2023-03-29T02:30:22.060Z,99.99
2023-03-29T02:31:22.057Z,99.99
2023-03-29T02:32:22.061Z,99.99
2023-03-29T02:33:24.087Z,99.99
2023-03-29T02:34:22.020Z,99.99
2023-03-29T02:35:22.054Z,99.99
2023-03-29T02:36:21.992Z,99.99
2023-03-29T02:37:22.028Z,99.99
2023-03-29T02:38:21.974Z,99.99
2023-03-29T02:39:21.972Z,99.99
2023-03-29T02:40:21.951Z,99.99
2023-03-29T02:41:27.966Z,99.99
2023-03-29T02:42:21.947Z,99.99
2023-03-29T02:43:27.978Z,99.99
2023-03-29T02:44:21.911Z,99.99
2023-03-29T02:45:21.910Z,99.99
2023-03-29T02:46:21.911Z,99.99
2023-03-29T02:47:21.890Z,99.99
2023-03-29T02:48:21.874Z,99.99
2023-03-29T02:49:21.884Z,99.99
2023-03-29T02:50:27.881Z,99.99
2023-03-29T02:51:22.064Z,99.99
2023-03-29T02:52:21.832Z,99.99
2023-03-29T02:53:21.835Z,99.99
2023-03-29T02:54:21.826Z,99.99
2023-03-29T02:55:21.820Z,99.99
2023-03-29T02:56:21.792Z,99.99
2023-03-29T02:57:21.953Z,99.99
2023-03-29T02:58:21.784Z,99.99
2023-03-29T02:59:22.014Z,99.99
2023-03-29T03:00:21.765Z,99.99
2023-03-29T03:01:27.782Z,99.99
2023-03-29T03:02:21.736Z,99.99
2023-03-29T03:03:21.804Z,99.99
2023-03-29T03:04:21.720Z,99.99
2023-03-29T03:05:21.712Z,99.99
2023-03-29T03:06:21.695Z,99.99
2023-03-29T03:07:21.689Z,99.99
2023-03-29T03:08:21.674Z,99.99
2023-03-29T03:09:21.674Z,99.99
2023-03-29T03:10:21.661Z,99.99
2023-03-29T03:11:21.650Z,99.99
2023-03-29T03:12:27.650Z,99.99
2023-03-29T03:13:21.627Z,99.99
2023-03-29T03:14:21.617Z,99.99
2023-03-29T03:15:21.665Z,99.99
2023-03-29T03:16:21.604Z,99.99
2023-03-29T03:17:21.615Z,99.99
2023-03-29T03:18:21.577Z,99.99
2023-03-29T03:19:21.568Z,99.99
2023-03-29T03:20:21.553Z,99.99
2023-03-29T03:21:21.547Z,99.99
2023-03-29T03:22:21.528Z,99.99
2023-03-29T03:23:21.526Z,99.99
2023-03-29T03:24:21.501Z,99.99
2023-03-29T03:25:21.504Z,99.99
2023-03-29T03:26:21.487Z,99.99
2023-03-29T03:27:21.481Z,99.99
2023-03-29T03:28:21.464Z,99.99
2023-03-29T03:29:21.468Z,99.99
2023-03-29T03:30:21.458Z,99.99
2023-03-29T03:31:21.540Z,99.99
2023-03-29T03:32:21.434Z,99.99
2023-03-29T03:33:21.415Z,99.99
2023-03-29T03:34:21.620Z,99.99
2023-03-29T03:35:21.393Z,99.99
2023-03-29T03:36:21.398Z,99.99
2023-03-29T03:37:21.371Z,99.99
2023-03-29T03:38:21.364Z,99.99
2023-03-29T03:39:21.359Z,99.99
2023-03-29T03:40:21.352Z,99.99
2023-03-29T03:41:21.347Z,99.99
2023-03-29T03:42:21.327Z,99.99
2023-03-29T03:43:21.310Z,99.99
2023-03-29T03:44:21.308Z,99.99
2023-03-29T03:45:21.292Z,99.99
2023-03-29T03:46:21.339Z,99.99
2023-03-29T03:47:21.295Z,99.99
2023-03-29T03:48:21.268Z,99.99
2023-03-29T03:49:21.248Z,99.99
2023-03-29T03:50:21.244Z,99.99
2023-03-29T03:51:21.231Z,99.99
2023-03-29T03:52:21.228Z,99.99
2023-03-29T03:53:21.230Z,99.99
2023-03-29T03:54:21.209Z,99.99
2023-03-29T03:55:21.194Z,99.99
2023-03-29T03:56:21.389Z,99.99
2023-03-29T03:57:21.257Z,99.99
2023-03-29T03:58:21.179Z,99.99
2023-03-29T03:59:21.145Z,99.99
2023-03-29T04:00:21.333Z,99.99
2023-03-29T04:01:21.127Z,99.99
2023-03-29T04:02:21.157Z,99.99
2023-03-29T04:03:21.285Z,99.99
2023-03-29T04:04:21.142Z,99.99
2023-03-29T04:05:21.087Z,99.99
2023-03-29T04:06:21.090Z,99.99
2023-03-29T04:07:21.072Z,99.99
2023-03-29T04:08:21.077Z,99.99
2023-03-29T04:09:21.050Z,99.99
2023-03-29T04:10:21.044Z,99.99
2023-03-29T04:11:21.047Z,99.99
2023-03-29T04:12:21.042Z,99.99
2023-03-29T04:13:21.031Z,99.99
2023-03-29T04:14:21.011Z,99.99
2023-03-29T04:15:21.000Z,99.99
2023-03-29T04:16:21.023Z,99.99
2023-03-29T04:17:20.971Z,99.99
2023-03-29T04:18:21.039Z,99.99
2023-03-29T04:19:20.971Z,99.99
2023-03-29T04:20:20.949Z,99.99
2023-03-29T04:21:21.470Z,99.99
2023-03-29T04:22:20.941Z,99.99
2023-03-29T04:23:20.924Z,99.99
2023-03-29T04:24:20.907Z,99.99
2023-03-29T04:25:21.092Z,99.99
2023-03-29T04:26:20.886Z,99.99
2023-03-29T04:27:20.865Z,99.99
2023-03-29T04:28:20.863Z,99.99
2023-03-29T04:29:20.851Z,99.99
2023-03-29T04:30:20.842Z,99.99
2023-03-29T04:31:26.864Z,99.99
2023-03-29T04:32:20.833Z,99.99
2023-03-29T04:33:20.818Z,99.99
2023-03-29T04:34:20.809Z,99.99
2023-03-29T04:35:20.826Z,99.99
2023-03-29T04:36:20.826Z,99.99
2023-03-29T04:37:20.767Z,99.99
2023-03-29T04:38:20.770Z,99.99
2023-03-29T04:39:20.751Z,99.99
2023-03-29T04:40:20.748Z,99.99
2023-03-29T04:41:20.743Z,99.99
2023-03-29T04:42:20.729Z,99.99
2023-03-29T04:43:20.707Z,99.99
2023-03-29T04:44:20.711Z,99.99
2023-03-29T04:45:20.757Z,99.99
2023-03-29T04:46:20.726Z,99.99
2023-03-29T04:47:20.678Z,99.99
2023-03-29T04:48:20.679Z,99.99
2023-03-29T04:49:20.646Z,99.99
2023-03-29T04:50:20.616Z,99.99
2023-03-29T04:51:20.610Z,99.99
2023-03-29T04:52:22.425Z,99.99
2023-03-29T04:53:20.759Z,99.99
2023-03-29T04:54:20.566Z,99.99
2023-03-29T04:55:20.545Z,99.99
2023-03-29T04:56:20.549Z,99.99
2023-03-29T04:57:20.550Z,99.99
2023-03-29T04:58:22.551Z,99.99
2023-03-29T04:59:20.509Z,99.99
2023-03-29T05:00:20.494Z,99.99
2023-03-29T05:01:20.519Z,99.99
2023-03-29T05:02:20.475Z,99.99
2023-03-29T05:03:20.462Z,99.99
2023-03-29T05:04:20.474Z,99.99
2023-03-29T05:05:20.427Z,99.99
2023-03-29T05:06:20.436Z,99.99
2023-03-29T05:07:20.514Z,99.99
2023-03-29T05:08:20.425Z,99.99
2023-03-29T05:09:20.410Z,99.99
2023-03-29T05:10:20.423Z,99.99
2023-03-29T05:11:20.385Z,99.99
2023-03-29T05:12:20.373Z,99.99
2023-03-29T05:13:20.358Z,99.99
2023-03-29T05:14:20.348Z,99.99
2023-03-29T05:15:20.333Z,99.99
2023-03-29T05:16:20.407Z,99.99
2023-03-29T05:17:20.320Z,99.99
2023-03-29T05:18:20.318Z,99.99
2023-03-29T05:19:20.303Z,99.99
2023-03-29T05:20:20.297Z,99.99
2023-03-29T05:21:20.269Z,99.99
2023-03-29T05:22:20.269Z,99.99
2023-03-29T05:23:20.297Z,99.99
2023-03-29T05:24:20.242Z,99.99
2023-03-29T05:25:20.234Z,99.99
2023-03-29T05:26:20.237Z,99.99
2023-03-29T05:27:20.212Z,99.99
2023-03-29T05:28:20.212Z,99.99
2023-03-29T05:29:20.219Z,99.99
2023-03-29T05:30:20.194Z,99.99
2023-03-29T05:31:20.185Z,99.99
2023-03-29T05:32:20.164Z,99.99
2023-03-29T05:33:20.158Z,99.99
2023-03-29T05:34:20.143Z,99.99
2023-03-29T05:35:20.131Z,99.99
2023-03-29T05:36:20.133Z,99.99
2023-03-29T05:37:20.105Z,99.99
2023-03-29T05:38:26.171Z,99.99
2023-03-29T05:39:20.091Z,99.99
2023-03-29T05:40:20.090Z,99.99
2023-03-29T05:41:20.068Z,99.99
2023-03-29T05:42:20.086Z,99.99
2023-03-29T05:43:20.052Z,99.99
2023-03-29T05:44:20.068Z,99.99
2023-03-29T05:45:20.028Z,99.99
2023-03-29T05:46:20.077Z,99.99
2023-03-29T05:47:20.011Z,99.99
2023-03-29T05:48:20.006Z,99.99
2023-03-29T05:49:25.990Z,99.99
2023-03-29T05:50:19.984Z,99.99
2023-03-29T05:51:19.959Z,99.99
2023-03-29T05:52:19.961Z,99.99
2023-03-29T05:53:19.951Z,99.99
2023-03-29T05:54:19.961Z,99.99
2023-03-29T05:55:19.928Z,99.99
2023-03-29T05:56:19.937Z,99.99
2023-03-29T05:57:19.967Z,99.99
2023-03-29T05:58:19.902Z,99.99
2023-03-29T05:59:19.900Z,99.99
2023-03-29T06:00:19.883Z,99.99
2023-03-29T06:01:19.866Z,99.99
2023-03-29T06:02:19.869Z,99.99
2023-03-29T06:03:21.117Z,99.99
2023-03-29T06:04:20.198Z,99.99
2023-03-29T06:05:19.816Z,99.99
2023-03-29T06:06:19.816Z,99.99
2023-03-29T06:07:19.802Z,99.99
2023-03-29T06:08:25.802Z,99.99
2023-03-29T06:09:19.776Z,99.99
2023-03-29T06:10:19.821Z,99.99
2023-03-29T06:11:19.754Z,99.99
2023-03-29T06:12:19.963Z,99.99
2023-03-29T06:13:19.740Z,99.99
2023-03-29T06:14:19.745Z,99.99
2023-03-29T06:15:19.712Z,99.99
2023-03-29T06:16:19.764Z,99.99
2023-03-29T06:17:19.799Z,99.99
2023-03-29T06:18:19.692Z,99.99
2023-03-29T06:19:19.695Z,99.99
2023-03-29T06:20:19.671Z,99.99
2023-03-29T06:21:19.656Z,99.99
2023-03-29T06:22:19.653Z,99.99
2023-03-29T06:23:19.633Z,99.99
2023-03-29T06:24:19.628Z,99.99
2023-03-29T06:25:19.624Z,99.99
2023-03-29T06:26:19.850Z,99.99
2023-03-29T06:27:19.590Z,99.99
2023-03-29T06:28:19.597Z,99.99
2023-03-29T06:29:19.578Z,99.99
2023-03-29T06:30:19.575Z,99.99
2023-03-29T06:31:19.654Z,99.99
2023-03-29T06:32:25.592Z,99.99
2023-03-29T06:33:19.552Z,99.99
2023-03-29T06:34:19.540Z,99.99
2023-03-29T06:35:19.511Z,99.99
2023-03-29T06:36:19.509Z,99.99
2023-03-29T06:37:19.497Z,99.99
2023-03-29T06:38:19.486Z,99.99
2023-03-29T06:39:19.475Z,99.99
2023-03-29T06:40:19.476Z,99.89
2023-03-29T06:41:19.452Z,99.68
2023-03-29T06:42:21.598Z,99.16
2023-03-29T06:43:19.425Z,98.76
2023-03-29T06:44:19.432Z,99.12
2023-03-29T06:45:21.238Z,98.40
2023-03-29T06:46:19.827Z,97.99
2023-03-29T06:47:19.394Z,97.37
2023-03-29T06:48:19.380Z,96.85
2023-03-29T06:49:19.364Z,96.13
2023-03-29T06:50:19.363Z,96.34
2023-03-29T06:51:21.204Z,96.34
2023-03-29T06:52:19.570Z,95.92
2023-03-29T06:53:19.320Z,96.34
2023-03-29T06:54:19.323Z,96.03
2023-03-29T06:55:19.302Z,95.72
2023-03-29T06:56:19.299Z,95.26
2023-03-29T06:57:19.333Z,94.85
2023-03-29T06:58:19.307Z,94.95
2023-03-29T06:59:19.264Z,95.01
2023-03-29T07:00:19.282Z,94.50
2023-03-29T07:01:19.285Z,95.12
2023-03-29T07:02:19.240Z,95.69
2023-03-29T07:03:19.228Z,96.52
2023-03-29T07:04:19.246Z,96.27
2023-03-29T07:05:19.197Z,96.67
2023-03-29T07:06:19.211Z,95.75
2023-03-29T07:07:19.178Z,95.70
2023-03-29T07:08:19.175Z,95.19
2023-03-29T07:09:19.594Z,95.81
2023-03-29T07:10:19.156Z,96.22
2023-03-29T07:11:19.141Z,96.83
2023-03-29T07:12:19.134Z,96.42
2023-03-29T07:13:19.113Z,96.48
2023-03-29T07:14:19.133Z,94.63
2023-03-29T07:15:19.111Z,94.53
2023-03-29T07:16:25.162Z,93.56
2023-03-29T07:17:19.070Z,92.84
2023-03-29T07:18:19.075Z,92.02
2023-03-29T07:19:19.075Z,92.23
2023-03-29T07:20:19.049Z,93.01
2023-03-29T07:21:19.057Z,93.21
2023-03-29T07:22:19.027Z,92.65
2023-03-29T07:23:19.018Z,93.99
2023-03-29T07:24:19.015Z,93.33
2023-03-29T07:25:18.985Z,91.48
2023-03-29T07:26:28.299Z,91.28
2023-03-29T07:27:20.218Z,92.10
2023-03-29T07:28:18.979Z,92.77
2023-03-29T07:29:18.946Z,92.42
2023-03-29T07:30:18.985Z,92.63
2023-03-29T07:31:18.930Z,91.77
2023-03-29T07:32:18.972Z,90.43
2023-03-29T07:33:24.983Z,90.13
2023-03-29T07:34:19.108Z,90.08
2023-03-29T07:35:18.889Z,90.35
2023-03-29T07:36:18.902Z,89.84
2023-03-29T07:37:18.863Z,89.18
2023-03-29T07:38:18.885Z,88.57
2023-03-29T07:39:18.846Z,88.73
2023-03-29T07:40:24.884Z,88.33
2023-03-29T07:41:18.826Z,87.30
2023-03-29T07:42:18.822Z,88.53
2023-03-29T07:43:18.809Z,88.53
2023-03-29T07:44:18.800Z,89.51
2023-03-29T07:45:18.779Z,88.44
2023-03-29T07:46:19.894Z,87.83
2023-03-29T07:47:18.765Z,88.30
2023-03-29T07:48:18.750Z,88.71
2023-03-29T07:49:21.012Z,87.38
2023-03-29T07:50:18.721Z,86.46
2023-03-29T07:51:18.725Z,86.30
2023-03-29T07:52:18.703Z,86.40
2023-03-29T07:53:18.720Z,87.32
2023-03-29T07:54:18.703Z,86.81
2023-03-29T07:55:18.676Z,86.26
2023-03-29T07:56:18.662Z,85.85
2023-03-29T07:57:18.890Z,85.75
2023-03-29T07:58:18.635Z,85.95
2023-03-29T07:59:18.661Z,85.65
2023-03-29T08:00:18.959Z,85.75
2023-03-29T08:01:19.628Z,84.22
2023-03-29T08:02:18.639Z,84.66
2023-03-29T08:03:18.704Z,85.54
2023-03-29T08:04:18.627Z,86.05
2023-03-29T08:05:26.049Z,85.54
2023-03-29T08:06:19.602Z,86.22
2023-03-29T08:07:19.042Z,85.85
2023-03-29T08:08:18.531Z,85.75
2023-03-29T08:09:18.528Z,85.20
2023-03-29T08:10:18.508Z,85.46
2023-03-29T08:11:18.505Z,84.44
2023-03-29T08:12:18.492Z,83.59
2023-03-29T08:13:18.503Z,83.86
2023-03-29T08:14:18.473Z,82.84
2023-03-29T08:15:18.668Z,83.98
2023-03-29T08:16:18.480Z,85.88
2023-03-29T08:17:18.443Z,86.55
2023-03-29T08:18:18.473Z,84.88
2023-03-29T08:19:18.427Z,80.37
2023-03-29T08:20:24.461Z,79.76
2023-03-29T08:21:18.405Z,82.81
2023-03-29T08:22:18.390Z,81.45
2023-03-29T08:23:18.391Z,80.80
2023-03-29T08:24:20.816Z,81.51
2023-03-29T08:25:24.383Z,80.49
2023-03-29T08:26:18.344Z,79.58
2023-03-29T08:27:18.340Z,80.26
2023-03-29T08:28:24.349Z,80.26
2023-03-29T08:29:18.324Z,80.36
2023-03-29T08:30:18.380Z,80.56
2023-03-29T08:31:18.347Z,79.85
2023-03-29T08:32:18.283Z,79.81
2023-03-29T08:33:18.336Z,78.90
2023-03-29T08:34:18.290Z,80.12
2023-03-29T08:35:18.272Z,79.41
2023-03-29T08:36:18.357Z,75.86
2023-03-29T08:37:18.240Z,76.67
2023-03-29T08:38:18.234Z,77.64
2023-03-29T08:39:19.524Z,77.81
2023-03-29T08:40:18.200Z,74.26
2023-03-29T08:41:18.398Z,71.22
2023-03-29T08:42:18.175Z,74.94
2023-03-29T08:43:18.178Z,68.96
2023-03-29T08:44:18.154Z,68.96
2023-03-29T08:45:18.155Z,69.43
2023-03-29T08:46:18.222Z,66.54
2023-03-29T08:47:18.132Z,68.06
2023-03-29T08:48:18.115Z,67.71
2023-03-29T08:49:18.114Z,67.08
2023-03-29T08:50:18.171Z,70.59
2023-03-29T08:51:18.096Z,65.80
2023-03-29T08:52:18.079Z,65.33
2023-03-29T08:53:18.074Z,65.57
2023-03-29T08:54:18.058Z,64.79
2023-03-29T08:55:18.535Z,64.86
2023-03-29T08:56:18.040Z,63.51
2023-03-29T08:57:18.111Z,66.27
2023-03-29T08:58:18.210Z,65.66
2023-03-29T08:59:18.024Z,64.39
2023-03-29T09:00:17.988Z,65.90
2023-03-29T09:01:18.025Z,68.40
2023-03-29T09:02:18.105Z,65.71
2023-03-29T09:03:18.073Z,65.88
2023-03-29T09:04:17.951Z,64.84
2023-03-29T09:05:17.941Z,61.97
2023-03-29T09:06:18.394Z,60.63
2023-03-29T09:07:17.924Z,59.29
2023-03-29T09:08:56.621Z,59.94
2023-03-29T09:09:56.596Z,65.09
2023-03-29T09:10:56.586Z,59.96
2023-03-29T09:11:56.585Z,57.27
2023-03-29T09:12:56.574Z,58.96
2023-03-29T09:13:56.554Z,60.93
2023-03-29T09:14:56.540Z,65.41
2023-03-29T09:15:56.794Z,63.54
2023-03-29T09:16:56.517Z,63.75
2023-03-29T09:17:56.557Z,63.17
2023-03-29T09:18:56.509Z,68.97
2023-03-29T09:19:56.500Z,62.20
2023-03-29T09:20:56.477Z,67.19
2023-03-29T09:21:56.501Z,61.76
2023-03-29T09:23:02.464Z,59.61
2023-03-29T09:23:56.447Z,63.35
2023-03-29T09:25:02.436Z,62.79
2023-03-29T09:25:56.432Z,57.99
2023-03-29T09:26:56.608Z,59.50
2023-03-29T09:27:56.404Z,59.10
2023-03-29T09:28:56.388Z,58.14
2023-03-29T09:29:56.394Z,62.54
2023-03-29T09:30:56.368Z,59.97
2023-03-29T09:31:56.418Z,61.55
2023-03-29T09:32:56.394Z,54.44
2023-03-29T09:33:56.345Z,56.90
2023-03-29T09:35:02.340Z,60.52
2023-03-29T09:36:02.589Z,56.48
2023-03-29T09:36:56.302Z,58.88
2023-03-29T09:38:02.341Z,55.32
2023-03-29T09:38:56.491Z,56.12
2023-03-29T09:39:56.288Z,54.97
2023-03-29T09:40:56.257Z,54.47
2023-03-29T09:41:56.461Z,56.21
2023-03-29T09:42:56.241Z,54.46
2023-03-29T09:43:56.237Z,51.77
2023-03-29T09:44:56.222Z,52.36
2023-03-29T09:45:56.246Z,55.85
2023-03-29T09:46:56.205Z,52.29
2023-03-29T09:47:56.252Z,49.95
2023-03-29T09:48:56.174Z,47.25
2023-03-29T09:49:56.180Z,42.99
2023-03-29T09:50:57.409Z,47.61
2023-03-29T09:52:02.161Z,47.51
2023-03-29T09:52:56.136Z,45.95
2023-03-29T09:53:56.170Z,41.21
2023-03-29T09:54:56.121Z,43.70
2023-03-29T09:55:56.118Z,41.72
2023-03-29T09:56:56.117Z,46.57
2023-03-29T09:57:56.104Z,43.62
2023-03-29T09:58:56.076Z,43.97
2023-03-29T09:59:56.083Z,39.73
2023-03-29T10:00:56.085Z,43.67
2023-03-29T10:01:56.056Z,44.17
2023-03-29T10:02:56.051Z,47.74
2023-03-29T10:03:56.095Z,46.82
2023-03-29T10:04:56.219Z,47.26
2023-03-29T10:05:56.017Z,50.32
2023-03-29T10:06:55.996Z,50.04
2023-03-29T10:07:55.993Z,50.29
2023-03-29T10:08:55.983Z,52.74
2023-03-29T10:09:56.019Z,52.23
2023-03-29T10:10:55.957Z,53.96
2023-03-29T10:11:55.952Z,52.46
2023-03-29T10:12:55.936Z,56.62
2023-03-29T10:14:30.628Z,55.74
2023-03-29T10:15:30.860Z,57.85
2023-03-29T10:16:30.741Z,58.23
2023-03-29T10:17:30.626Z,55.24
2023-03-29T10:18:30.575Z,57.12
2023-03-29T10:19:36.602Z,55.62
2023-03-29T10:20:30.557Z,55.99
2023-03-29T10:21:30.554Z,57.40
2023-03-29T10:22:30.535Z,57.20
2023-03-29T10:23:30.539Z,59.10
2023-03-29T10:24:30.521Z,58.03
2023-03-29T10:25:30.779Z,56.02
2023-03-29T10:26:30.498Z,54.29
2023-03-29T10:27:36.514Z,57.50
2023-03-29T10:28:30.473Z,55.92
2023-03-29T10:29:30.475Z,58.78
2023-03-29T10:30:30.661Z,59.91
2023-03-29T10:31:30.534Z,60.62
2023-03-29T10:32:30.452Z,58.54
2023-03-29T10:33:30.438Z,60.18
2023-03-29T10:34:30.417Z,61.61
2023-03-29T10:35:30.410Z,62.64
2023-03-29T10:36:30.397Z,64.42
2023-03-29T10:37:30.388Z,64.09
2023-03-29T10:38:36.380Z,59.14
2023-03-29T10:39:30.365Z,62.40
2023-03-29T10:40:30.354Z,61.09
2023-03-29T10:41:30.375Z,60.09
2023-03-29T10:42:30.332Z,58.86
2023-03-29T10:43:30.335Z,56.98
2023-03-29T10:44:32.733Z,58.55
2023-03-29T10:45:30.302Z,60.23
2023-03-29T10:46:30.368Z,60.46
2023-03-29T10:47:36.340Z,58.45
2023-03-29T10:48:30.270Z,62.96
2023-03-29T10:49:30.274Z,61.66
2023-03-29T10:50:30.253Z,62.06
2023-03-29T10:51:30.276Z,58.78
2023-03-29T10:52:30.229Z,61.39
2023-03-29T10:53:30.227Z,59.52
2023-03-29T10:54:30.433Z,65.36
2023-03-29T10:55:30.196Z,63.89
2023-03-29T10:56:30.415Z,61.68
2023-03-29T10:57:30.284Z,66.13
2023-03-29T10:58:30.180Z,64.42
2023-03-29T10:59:30.154Z,66.03
2023-03-29T11:00:30.156Z,64.63
2023-03-29T11:01:36.183Z,63.29
2023-03-29T11:02:30.352Z,64.59
2023-03-29T11:03:30.201Z,64.06
2023-03-29T11:04:30.120Z,63.06
2023-03-29T11:05:30.097Z,63.53
2023-03-29T11:06:30.092Z,62.96
2023-03-29T11:07:30.072Z,60.47
2023-03-29T11:08:31.837Z,63.25
2023-03-29T11:09:30.275Z,64.61
2023-03-29T11:10:30.051Z,66.06
2023-03-29T11:11:30.052Z,65.89
2023-03-29T11:12:30.054Z,67.63
2023-03-29T11:13:30.046Z,69.34
2023-03-29T11:14:30.216Z,68.37
2023-03-29T11:15:30.052Z,70.62
2023-03-29T11:16:29.986Z,70.79
2023-03-29T11:17:29.993Z,69.98
2023-03-29T11:18:29.968Z,70.45
2023-03-29T11:19:35.956Z,68.60
2023-03-29T11:20:29.944Z,69.85
2023-03-29T11:21:31.992Z,69.04
2023-03-29T11:22:30.018Z,71.13
2023-03-29T11:23:29.925Z,69.58
2023-03-29T11:24:29.897Z,67.57
2023-03-29T11:25:30.138Z,69.08
2023-03-29T11:26:30.088Z,67.90
2023-03-29T11:27:29.875Z,67.77
2023-03-29T11:28:29.871Z,66.51
2023-03-29T11:29:29.880Z,63.46
2023-03-29T11:30:29.849Z,67.74
2023-03-29T11:31:39.095Z,64.16
2023-03-29T11:32:29.837Z,64.57
2023-03-29T11:33:29.817Z,65.78
2023-03-29T11:34:29.797Z,62.21
2023-03-29T11:35:29.806Z,60.09
2023-03-29T11:36:29.770Z,62.39
2023-03-29T11:37:29.782Z,61.32
2023-03-29T11:38:29.748Z,61.49
2023-03-29T11:39:29.752Z,61.46
2023-03-29T11:40:29.737Z,58.22
2023-03-29T11:41:29.730Z,62.85
2023-03-29T11:42:29.713Z,63.07
2023-03-29T11:43:29.805Z,61.57
2023-03-29T11:44:29.947Z,63.41
2023-03-29T11:45:29.713Z,63.84
2023-03-29T11:46:29.715Z,64.47
2023-03-29T11:47:29.682Z,64.91
2023-03-29T11:48:29.753Z,65.60
2023-03-29T11:49:29.644Z,66.97
2023-03-29T11:50:29.625Z,67.10
2023-03-29T11:51:29.628Z,68.24
2023-03-29T11:52:29.610Z,68.98
2023-03-29T11:53:29.608Z,72.03
2023-03-29T11:54:29.690Z,72.07
2023-03-29T11:55:29.589Z,73.41
2023-03-29T11:56:29.580Z,72.10
2023-03-29T11:57:35.568Z,72.71
2023-03-29T11:58:29.553Z,71.93
2023-03-29T11:59:29.536Z,73.21
2023-03-29T12:00:29.536Z,72.07
2023-03-29T12:01:29.549Z,72.40
2023-03-29T12:02:29.667Z,71.46
2023-03-29T12:03:29.573Z,69.92
2023-03-29T12:04:29.539Z,67.70
2023-03-29T12:05:29.475Z,70.05
2023-03-29T12:06:31.457Z,67.87
2023-03-29T12:07:29.457Z,72.40
2023-03-29T12:08:29.454Z,69.68
2023-03-29T12:09:29.443Z,70.19
2023-03-29T12:10:29.417Z,71.80
2023-03-29T12:11:31.467Z,69.28
2023-03-29T12:12:29.409Z,70.66
2023-03-29T12:13:29.388Z,69.65
2023-03-29T12:14:29.391Z,68.24
2023-03-29T12:15:29.363Z,66.13
2023-03-29T12:16:29.402Z,68.91
2023-03-29T12:17:29.427Z,67.47
2023-03-29T12:18:29.389Z,68.92
2023-03-29T12:19:29.326Z,67.75
2023-03-29T12:20:29.331Z,64.15
2023-03-29T12:21:29.304Z,60.79
2023-03-29T12:22:29.304Z,58.11
2023-03-29T12:23:29.280Z,59.87
2023-03-29T12:24:29.283Z,56.43
2023-03-29T12:25:29.265Z,60.23
2023-03-29T12:26:29.257Z,59.76
2023-03-29T12:27:29.245Z,61.56
2023-03-29T12:28:29.239Z,60.36
2023-03-29T12:29:29.224Z,58.36
2023-03-29T12:30:29.217Z,60.33
2023-03-29T12:31:29.260Z,60.73
2023-03-29T12:32:35.288Z,57.51
2023-03-29T12:33:29.182Z,62.42
2023-03-29T12:34:29.181Z,60.11
2023-03-29T12:35:29.163Z,61.48
2023-03-29T12:36:29.164Z,58.80
2023-03-29T12:37:29.138Z,63.44
2023-03-29T12:38:30.748Z,62.17
2023-03-29T12:39:29.126Z,65.03
2023-03-29T12:40:29.127Z,64.53
2023-03-29T12:41:29.104Z,66.84
2023-03-29T12:42:29.100Z,62.79
2023-03-29T12:43:29.080Z,64.86
2023-03-29T12:44:29.078Z,66.73
2023-03-29T12:45:29.064Z,70.15
2023-03-29T12:46:29.098Z,68.54
2023-03-29T12:47:29.064Z,71.16
2023-03-29T12:48:29.069Z,70.45
2023-03-29T12:49:29.017Z,71.60
2023-03-29T12:50:35.232Z,69.65
2023-03-29T12:51:29.099Z,68.71
2023-03-29T12:52:29.002Z,67.41
2023-03-29T12:53:28.984Z,64.80
2023-03-29T12:54:28.982Z,64.49
2023-03-29T12:55:28.995Z,69.89
2023-03-29T12:56:28.959Z,66.81
2023-03-29T12:57:29.076Z,65.35
2023-03-29T12:58:28.934Z,61.23
2023-03-29T12:59:28.921Z,63.94
2023-03-29T13:00:28.922Z,66.91
2023-03-29T13:01:29.125Z,61.43
2023-03-29T13:02:35.048Z,62.09
2023-03-29T13:03:29.076Z,68.65
2023-03-29T13:04:29.109Z,65.50
2023-03-29T13:05:28.917Z,63.96
2023-03-29T13:06:28.850Z,68.55
2023-03-29T13:07:34.838Z,67.11